sensor_id;sensor_type;location;lat;lon;timestamp;pressure;altitude;pressure_sealevel;temperature;humidity
64230;BME280;50547;49.498;0.092;2023-04-28T00:00:43;1008.50;;;15.50;89.13
64230;BME280;50547;49.498;0.092;2023-04-28T00:03:12;1008.50;;;15.40;89.52
64230;BME280;50547;49.498;0.092;2023-04-28T00:05:41;1008.52;;;15.36;89.70
64230;BME280;50547;49.498;0.092;2023-04-28T00:08:10;1008.50;;;15.19;90.34
64230;BME280;50547;49.498;0.092;2023-04-28T00:10:40;1008.50;;;15.16;90.39
64230;BME280;50547;49.498;0.092;2023-04-28T00:13:09;1008.52;;;15.25;89.83
64230;BME280;50547;49.498;0.092;2023-04-28T00:15:38;1008.48;;;15.25;89.73
64230;BME280;50547;49.498;0.092;2023-04-28T00:18:07;1008.46;;;15.31;89.41
64230;BME280;50547;49.498;0.092;2023-04-28T00:20:36;1008.44;;;15.25;89.90
64230;BME280;50547;49.498;0.092;2023-04-28T00:23:05;1008.40;;;15.28;89.66
64230;BME280;50547;49.498;0.092;2023-04-28T00:25:34;1008.46;;;15.30;90.04
64230;BME280;50547;49.498;0.092;2023-04-28T00:28:03;1008.46;;;15.33;90.19
64230;BME280;50547;49.498;0.092;2023-04-28T00:30:33;1008.44;;;15.34;90.37
64230;BME280;50547;49.498;0.092;2023-04-28T00:33:02;1008.44;;;15.33;90.61
64230;BME280;50547;49.498;0.092;2023-04-28T00:35:31;1008.46;;;15.39;90.63
64230;BME280;50547;49.498;0.092;2023-04-28T00:38:00;1008.48;;;15.36;90.74
64230;BME280;50547;49.498;0.092;2023-04-28T00:40:32;1008.48;;;15.36;90.75
64230;BME280;50547;49.498;0.092;2023-04-28T00:43:01;1008.46;;;15.24;91.08
64230;BME280;50547;49.498;0.092;2023-04-28T00:45:30;1008.48;;;15.30;90.68
64230;BME280;50547;49.498;0.092;2023-04-28T00:47:59;1008.50;;;15.31;90.74
64230;BME280;50547;49.498;0.092;2023-04-28T00:50:29;1008.44;;;15.38;90.62
64230;BME280;50547;49.498;0.092;2023-04-28T00:52:59;1008.38;;;15.38;90.71
64230;BME280;50547;49.498;0.092;2023-04-28T00:55:30;1008.48;;;15.35;90.99
64230;BME280;50547;49.498;0.092;2023-04-28T00:58:02;1008.46;;;15.40;90.60
64230;BME280;50547;49.498;0.092;2023-04-28T01:00:32;1008.50;;;15.38;90.69
64230;BME280;50547;49.498;0.092;2023-04-28T01:03:02;1008.52;;;15.38;90.50
64230;BME280;50547;49.498;0.092;2023-04-28T01:05:31;1008.52;;;15.37;90.69
64230;BME280;50547;49.498;0.092;2023-04-28T01:08:01;1008.55;;;15.32;90.93
64230;BME280;50547;49.498;0.092;2023-04-28T01:10:30;1008.59;;;15.35;91.22
64230;BME280;50547;49.498;0.092;2023-04-28T01:12:59;1008.52;;;15.18;92.09
64230;BME280;50547;49.498;0.092;2023-04-28T01:15:28;1008.53;;;15.23;91.50
64230;BME280;50547;49.498;0.092;2023-04-28T01:17:58;1008.50;;;15.23;91.17
64230;BME280;50547;49.498;0.092;2023-04-28T01:20:23;1008.53;;;15.25;90.96
64230;BME280;50547;49.498;0.092;2023-04-28T01:22:52;1008.46;;;15.16;91.94
64230;BME280;50547;49.498;0.092;2023-04-28T01:25:22;1008.53;;;15.20;91.56
64230;BME280;50547;49.498;0.092;2023-04-28T01:27:51;1008.65;;;15.18;91.44
64230;BME280;50547;49.498;0.092;2023-04-28T01:30:20;1008.61;;;15.11;91.48
64230;BME280;50547;49.498;0.092;2023-04-28T01:32:49;1008.61;;;15.09;91.39
64230;BME280;50547;49.498;0.092;2023-04-28T01:35:18;1008.59;;;15.00;91.66
64230;BME280;50547;49.498;0.092;2023-04-28T01:37:47;1008.57;;;14.91;91.97
64230;BME280;50547;49.498;0.092;2023-04-28T01:40:16;1008.59;;;14.96;91.45
64230;BME280;50547;49.498;0.092;2023-04-28T01:42:46;1008.63;;;15.00;91.02
64230;BME280;50547;49.498;0.092;2023-04-28T01:45:15;1008.57;;;15.04;90.68
64230;BME280;50547;49.498;0.092;2023-04-28T01:47:44;1008.53;;;15.01;90.87
64230;BME280;50547;49.498;0.092;2023-04-28T01:50:13;1008.55;;;15.08;90.46
64230;BME280;50547;49.498;0.092;2023-04-28T01:52:42;1008.55;;;14.98;91.19
64230;BME280;50547;49.498;0.092;2023-04-28T01:55:11;1008.53;;;15.08;90.88
64230;BME280;50547;49.498;0.092;2023-04-28T01:57:41;1008.53;;;15.12;90.73
64230;BME280;50547;49.498;0.092;2023-04-28T02:00:10;1008.52;;;15.10;90.83
64230;BME280;50547;49.498;0.092;2023-04-28T02:02:40;1008.50;;;15.20;90.31
64230;BME280;50547;49.498;0.092;2023-04-28T02:05:09;1008.52;;;15.14;90.74
64230;BME280;50547;49.498;0.092;2023-04-28T02:07:38;1008.53;;;15.06;91.15
64230;BME280;50547;49.498;0.092;2023-04-28T02:10:08;1008.53;;;15.13;90.73
64230;BME280;50547;49.498;0.092;2023-04-28T02:12:37;1008.52;;;15.18;90.55
64230;BME280;50547;49.498;0.092;2023-04-28T02:15:07;1008.52;;;15.17;90.48
64230;BME280;50547;49.498;0.092;2023-04-28T02:17:37;1008.38;;;15.34;90.95
64230;BME280;50547;49.498;0.092;2023-04-28T02:20:07;1008.46;;;15.39;90.60
64230;BME280;50547;49.498;0.092;2023-04-28T02:22:36;1008.50;;;15.35;90.45
64230;BME280;50547;49.498;0.092;2023-04-28T02:25:06;1008.50;;;15.32;90.45
64230;BME280;50547;49.498;0.092;2023-04-28T02:27:35;1008.46;;;15.30;90.31
64230;BME280;50547;49.498;0.092;2023-04-28T02:30:06;1008.48;;;15.32;90.06
64230;BME280;50547;49.498;0.092;2023-04-28T02:32:35;1008.42;;;15.28;90.11
64230;BME280;50547;49.498;0.092;2023-04-28T02:35:05;1008.46;;;15.39;89.47
64230;BME280;50547;49.498;0.092;2023-04-28T02:37:34;1008.46;;;15.39;89.39
64230;BME280;50547;49.498;0.092;2023-04-28T02:40:04;1008.42;;;15.28;89.92
64230;BME280;50547;49.498;0.092;2023-04-28T02:42:34;1008.42;;;15.22;90.12
64230;BME280;50547;49.498;0.092;2023-04-28T02:45:04;1008.44;;;15.22;90.05
64230;BME280;50547;49.498;0.092;2023-04-28T02:47:33;1008.46;;;15.16;90.37
64230;BME280;50547;49.498;0.092;2023-04-28T02:50:03;1008.44;;;15.11;90.64
64230;BME280;50547;49.498;0.092;2023-04-28T02:52:32;1008.44;;;15.07;90.89
64230;BME280;50547;49.498;0.092;2023-04-28T02:55:01;1008.42;;;15.10;90.50
64230;BME280;50547;49.498;0.092;2023-04-28T02:57:30;1008.42;;;15.11;90.38
64230;BME280;50547;49.498;0.092;2023-04-28T02:59:59;1008.40;;;15.08;90.47
64230;BME280;50547;49.498;0.092;2023-04-28T03:02:28;1008.40;;;15.12;90.14
64230;BME280;50547;49.498;0.092;2023-04-28T03:04:57;1008.44;;;15.18;89.84
64230;BME280;50547;49.498;0.092;2023-04-28T03:07:26;1008.48;;;15.13;90.14
64230;BME280;50547;49.498;0.092;2023-04-28T03:09:56;1008.46;;;15.17;90.06
64230;BME280;50547;49.498;0.092;2023-04-28T03:12:25;1008.46;;;15.12;90.43
64230;BME280;50547;49.498;0.092;2023-04-28T03:14:54;1008.46;;;15.04;90.95
64230;BME280;50547;49.498;0.092;2023-04-28T03:17:23;1008.46;;;15.10;90.61
64230;BME280;50547;49.498;0.092;2023-04-28T03:19:52;1008.50;;;15.00;91.29
64230;BME280;50547;49.498;0.092;2023-04-28T03:22:21;1008.50;;;14.98;91.43
64230;BME280;50547;49.498;0.092;2023-04-28T03:24:51;1008.44;;;14.91;91.75
64230;BME280;50547;49.498;0.092;2023-04-28T03:27:20;1008.36;;;14.97;91.28
64230;BME280;50547;49.498;0.092;2023-04-28T03:29:49;1008.38;;;15.04;90.95
64230;BME280;50547;49.498;0.092;2023-04-28T03:32:18;1008.50;;;15.01;91.04
64230;BME280;50547;49.498;0.092;2023-04-28T03:34:48;1008.40;;;15.05;90.86
64230;BME280;50547;49.498;0.092;2023-04-28T03:37:17;1008.46;;;15.02;90.96
64230;BME280;50547;49.498;0.092;2023-04-28T03:39:46;1008.48;;;14.87;91.60
64230;BME280;50547;49.498;0.092;2023-04-28T03:42:15;1008.50;;;14.89;91.35
64230;BME280;50547;49.498;0.092;2023-04-28T03:44:44;1008.50;;;14.96;90.93
64230;BME280;50547;49.498;0.092;2023-04-28T03:47:14;1008.53;;;14.96;91.05
64230;BME280;50547;49.498;0.092;2023-04-28T03:49:43;1008.53;;;14.98;91.07
64230;BME280;50547;49.498;0.092;2023-04-28T03:52:12;1008.52;;;14.97;91.14
64230;BME280;50547;49.498;0.092;2023-04-28T03:54:41;1008.52;;;14.85;91.81
64230;BME280;50547;49.498;0.092;2023-04-28T03:57:10;1008.46;;;14.74;92.27
64230;BME280;50547;49.498;0.092;2023-04-28T03:59:39;1008.46;;;14.79;91.86
64230;BME280;50547;49.498;0.092;2023-04-28T04:02:08;1008.46;;;14.79;91.83
64230;BME280;50547;49.498;0.092;2023-04-28T04:04:38;1008.44;;;14.74;92.24
64230;BME280;50547;49.498;0.092;2023-04-28T04:07:07;1008.48;;;14.76;92.04
64230;BME280;50547;49.498;0.092;2023-04-28T04:09:36;1008.50;;;14.68;92.44
64230;BME280;50547;49.498;0.092;2023-04-28T04:12:06;1008.55;;;14.86;91.36
64230;BME280;50547;49.498;0.092;2023-04-28T04:14:35;1008.53;;;15.03;90.22
64230;BME280;50547;49.498;0.092;2023-04-28T04:17:04;1008.61;;;15.07;89.89
64230;BME280;50547;49.498;0.092;2023-04-28T04:19:33;1008.65;;;15.11;89.92
64230;BME280;50547;49.498;0.092;2023-04-28T04:22:02;1008.65;;;14.98;90.54
64230;BME280;50547;49.498;0.092;2023-04-28T04:24:31;1008.67;;;14.75;91.40
64230;BME280;50547;49.498;0.092;2023-04-28T04:27:00;1008.69;;;14.67;91.66
64230;BME280;50547;49.498;0.092;2023-04-28T04:29:30;1008.67;;;14.56;91.95
64230;BME280;50547;49.498;0.092;2023-04-28T04:31:59;1008.67;;;14.62;91.53
64230;BME280;50547;49.498;0.092;2023-04-28T04:34:28;1008.65;;;14.75;90.76
64230;BME280;50547;49.498;0.092;2023-04-28T04:36:57;1008.65;;;14.74;90.72
64230;BME280;50547;49.498;0.092;2023-04-28T04:39:26;1008.67;;;14.77;90.69
64230;BME280;50547;49.498;0.092;2023-04-28T04:41:55;1008.63;;;14.84;90.41
64230;BME280;50547;49.498;0.092;2023-04-28T04:44:24;1008.73;;;14.88;90.33
64230;BME280;50547;49.498;0.092;2023-04-28T04:46:54;1008.73;;;14.77;90.95
64230;BME280;50547;49.498;0.092;2023-04-28T04:49:23;1008.77;;;14.73;91.10
64230;BME280;50547;49.498;0.092;2023-04-28T04:51:52;1008.73;;;14.76;90.76
64230;BME280;50547;49.498;0.092;2023-04-28T04:54:21;1008.79;;;14.74;90.87
64230;BME280;50547;49.498;0.092;2023-04-28T04:56:50;1008.85;;;14.70;90.96
64230;BME280;50547;49.498;0.092;2023-04-28T04:59:19;1008.89;;;14.66;90.99
64230;BME280;50547;49.498;0.092;2023-04-28T05:01:49;1008.87;;;14.63;91.02
64230;BME280;50547;49.498;0.092;2023-04-28T05:04:18;1008.89;;;14.67;90.80
64230;BME280;50547;49.498;0.092;2023-04-28T05:06:47;1008.91;;;14.82;90.01
64230;BME280;50547;49.498;0.092;2023-04-28T05:09:16;1008.95;;;14.82;90.12
64230;BME280;50547;49.498;0.092;2023-04-28T05:11:45;1008.95;;;14.74;90.73
64230;BME280;50547;49.498;0.092;2023-04-28T05:14:14;1008.93;;;14.85;90.27
64230;BME280;50547;49.498;0.092;2023-04-28T05:16:43;1008.99;;;14.91;90.19
64230;BME280;50547;49.498;0.092;2023-04-28T05:19:12;1008.99;;;14.90;90.42
64230;BME280;50547;49.498;0.092;2023-04-28T05:21:42;1008.95;;;14.98;90.14
64230;BME280;50547;49.498;0.092;2023-04-28T05:24:11;1008.99;;;15.08;89.78
64230;BME280;50547;49.498;0.092;2023-04-28T05:26:40;1009.00;;;15.04;90.21
64230;BME280;50547;49.498;0.092;2023-04-28T05:29:09;1009.08;;;14.98;90.59
64230;BME280;50547;49.498;0.092;2023-04-28T05:31:38;1009.10;;;15.10;90.04
64230;BME280;50547;49.498;0.092;2023-04-28T05:34:08;1009.08;;;15.16;89.77
64230;BME280;50547;49.498;0.092;2023-04-28T05:36:37;1009.12;;;15.10;90.33
64230;BME280;50547;49.498;0.092;2023-04-28T05:39:06;1009.10;;;15.03;90.72
64230;BME280;50547;49.498;0.092;2023-04-28T05:41:35;1009.12;;;15.01;90.73
64230;BME280;50547;49.498;0.092;2023-04-28T05:44:05;1009.12;;;15.13;90.04
64230;BME280;50547;49.498;0.092;2023-04-28T05:46:35;1009.22;;;15.15;89.68
64230;BME280;50547;49.498;0.092;2023-04-28T05:49:04;1009.24;;;14.89;90.80
64230;BME280;50547;49.498;0.092;2023-04-28T05:51:33;1009.28;;;14.79;91.06
64230;BME280;50547;49.498;0.092;2023-04-28T05:54:03;1009.32;;;14.75;91.19
64230;BME280;50547;49.498;0.092;2023-04-28T05:56:32;1009.36;;;14.66;91.31
64230;BME280;50547;49.498;0.092;2023-04-28T05:59:01;1009.36;;;14.60;91.51
64230;BME280;50547;49.498;0.092;2023-04-28T06:01:31;1009.46;;;14.45;92.10
64230;BME280;50547;49.498;0.092;2023-04-28T06:04:00;1009.42;;;14.39;92.18
64230;BME280;50547;49.498;0.092;2023-04-28T06:06:29;1009.49;;;14.33;92.13
64230;BME280;50547;49.498;0.092;2023-04-28T06:08:59;1009.57;;;14.32;92.02
64230;BME280;50547;49.498;0.092;2023-04-28T06:11:28;1009.61;;;14.25;92.08
64230;BME280;50547;49.498;0.092;2023-04-28T06:13:57;1009.63;;;14.30;91.68
64230;BME280;50547;49.498;0.092;2023-04-28T06:16:27;1009.63;;;14.33;91.44
64230;BME280;50547;49.498;0.092;2023-04-28T06:18:56;1009.69;;;14.22;91.84
64230;BME280;50547;49.498;0.092;2023-04-28T06:21:25;1009.71;;;14.22;91.68
64230;BME280;50547;49.498;0.092;2023-04-28T06:23:55;1009.69;;;14.15;91.80
64230;BME280;50547;49.498;0.092;2023-04-28T06:26:24;1009.69;;;14.14;91.74
64230;BME280;50547;49.498;0.092;2023-04-28T06:28:53;1009.65;;;14.17;91.29
64230;BME280;50547;49.498;0.092;2023-04-28T06:31:22;1009.67;;;14.11;91.58
64230;BME280;50547;49.498;0.092;2023-04-28T06:33:51;1009.75;;;14.01;91.82
64230;BME280;50547;49.498;0.092;2023-04-28T06:36:20;1009.75;;;13.83;92.66
64230;BME280;50547;49.498;0.092;2023-04-28T06:38:50;1009.79;;;13.88;92.31
64230;BME280;50547;49.498;0.092;2023-04-28T06:41:19;1009.81;;;13.88;92.19
64230;BME280;50547;49.498;0.092;2023-04-28T06:43:48;1009.83;;;13.87;92.00
64230;BME280;50547;49.498;0.092;2023-04-28T06:46:17;1009.85;;;13.88;91.77
64230;BME280;50547;49.498;0.092;2023-04-28T06:48:46;1009.87;;;13.89;91.57
64230;BME280;50547;49.498;0.092;2023-04-28T06:51:15;1009.98;;;13.84;91.66
64230;BME280;50547;49.498;0.092;2023-04-28T06:53:44;1009.91;;;13.88;91.21
64230;BME280;50547;49.498;0.092;2023-04-28T06:56:13;1009.96;;;13.75;91.74
64230;BME280;50547;49.498;0.092;2023-04-28T06:58:43;1009.93;;;13.78;91.49
64230;BME280;50547;49.498;0.092;2023-04-28T07:01:12;1009.98;;;13.84;91.21
64230;BME280;50547;49.498;0.092;2023-04-28T07:03:41;1009.98;;;13.86;91.13
64230;BME280;50547;49.498;0.092;2023-04-28T07:06:10;1009.94;;;13.90;90.93
64230;BME280;50547;49.498;0.092;2023-04-28T07:08:40;1010.00;;;14.01;90.50
64230;BME280;50547;49.498;0.092;2023-04-28T07:11:09;1009.96;;;13.98;90.74
64230;BME280;50547;49.498;0.092;2023-04-28T07:13:39;1010.02;;;13.90;91.20
64230;BME280;50547;49.498;0.092;2023-04-28T07:16:08;1010.04;;;13.92;91.02
64230;BME280;50547;49.498;0.092;2023-04-28T07:18:38;1009.94;;;13.82;91.30
64230;BME280;50547;49.498;0.092;2023-04-28T07:21:07;1010.06;;;13.84;91.12
64230;BME280;50547;49.498;0.092;2023-04-28T07:23:36;1010.08;;;13.67;91.86
64230;BME280;50547;49.498;0.092;2023-04-28T07:26:06;1010.06;;;13.69;91.63
64230;BME280;50547;49.498;0.092;2023-04-28T07:28:35;1010.10;;;13.59;92.00
64230;BME280;50547;49.498;0.092;2023-04-28T07:31:04;1010.10;;;13.57;91.92
64230;BME280;50547;49.498;0.092;2023-04-28T07:33:33;1010.12;;;13.62;91.34
64230;BME280;50547;49.498;0.092;2023-04-28T07:36:03;1010.10;;;13.59;91.40
64230;BME280;50547;49.498;0.092;2023-04-28T07:38:36;1010.16;;;13.46;91.99
64230;BME280;50547;49.498;0.092;2023-04-28T07:41:05;1010.22;;;13.45;91.86
64230;BME280;50547;49.498;0.092;2023-04-28T07:43:34;1010.26;;;13.40;92.08
64230;BME280;50547;49.498;0.092;2023-04-28T07:46:04;1010.20;;;13.47;91.66
64230;BME280;50547;49.498;0.092;2023-04-28T07:48:33;1010.26;;;13.43;91.56
64230;BME280;50547;49.498;0.092;2023-04-28T07:51:02;1010.34;;;13.42;91.60
64230;BME280;50547;49.498;0.092;2023-04-28T07:53:32;1010.34;;;13.43;91.54
64230;BME280;50547;49.498;0.092;2023-04-28T07:56:02;1010.39;;;13.43;91.55
64230;BME280;50547;49.498;0.092;2023-04-28T07:58:32;1010.43;;;13.44;91.44
64230;BME280;50547;49.498;0.092;2023-04-28T08:01:01;1010.36;;;13.51;91.08
64230;BME280;50547;49.498;0.092;2023-04-28T08:03:30;1010.43;;;13.42;91.66
64230;BME280;50547;49.498;0.092;2023-04-28T08:05:59;1010.47;;;13.57;90.97
64230;BME280;50547;49.498;0.092;2023-04-28T08:11:01;1010.47;;;13.54;91.28
64230;BME280;50547;49.498;0.092;2023-04-28T08:13:31;1010.66;;;13.60;91.04
64230;BME280;50547;49.498;0.092;2023-04-28T08:16:01;1010.64;;;13.69;90.34
64230;BME280;50547;49.498;0.092;2023-04-28T08:18:30;1010.70;;;13.69;90.31
64230;BME280;50547;49.498;0.092;2023-04-28T08:21:00;1010.66;;;13.58;91.15
64230;BME280;50547;49.498;0.092;2023-04-28T08:23:29;1010.70;;;13.61;90.82
64230;BME280;50547;49.498;0.092;2023-04-28T08:25:58;1010.70;;;13.61;90.88
64230;BME280;50547;49.498;0.092;2023-04-28T08:28:27;1010.70;;;13.68;90.68
64230;BME280;50547;49.498;0.092;2023-04-28T08:30:56;1010.71;;;13.65;91.03
64230;BME280;50547;49.498;0.092;2023-04-28T08:33:25;1010.75;;;13.63;91.07
64230;BME280;50547;49.498;0.092;2023-04-28T08:35:54;1010.85;;;13.63;90.84
64230;BME280;50547;49.498;0.092;2023-04-28T08:38:24;1010.87;;;13.68;90.56
64230;BME280;50547;49.498;0.092;2023-04-28T08:40:53;1010.89;;;13.66;90.68
64230;BME280;50547;49.498;0.092;2023-04-28T08:43:22;1010.91;;;13.78;90.22
64230;BME280;50547;49.498;0.092;2023-04-28T08:45:53;1010.83;;;13.69;90.71
64230;BME280;50547;49.498;0.092;2023-04-28T08:48:22;1010.87;;;13.83;90.15
64230;BME280;50547;49.498;0.092;2023-04-28T08:50:53;1010.85;;;13.74;90.57
64230;BME280;50547;49.498;0.092;2023-04-28T08:53:24;1010.89;;;13.90;89.85
64230;BME280;50547;49.498;0.092;2023-04-28T08:55:55;1010.91;;;13.89;89.81
64230;BME280;50547;49.498;0.092;2023-04-28T08:58:25;1010.91;;;13.73;90.58
64230;BME280;50547;49.498;0.092;2023-04-28T09:00:55;1010.91;;;13.73;90.37
64230;BME280;50547;49.498;0.092;2023-04-28T09:03:25;1010.95;;;13.68;90.69
64230;BME280;50547;49.498;0.092;2023-04-28T09:05:55;1010.95;;;13.60;90.79
64230;BME280;50547;49.498;0.092;2023-04-28T09:08:24;1011.01;;;13.61;90.39
64230;BME280;50547;49.498;0.092;2023-04-28T09:11:05;1011.07;;;13.58;90.50
64230;BME280;50547;49.498;0.092;2023-04-28T09:13:35;1011.18;;;13.58;90.38
64230;BME280;50547;49.498;0.092;2023-04-28T09:16:06;1011.20;;;13.53;90.52
64230;BME280;50547;49.498;0.092;2023-04-28T09:18:35;1011.34;;;13.57;90.32
64230;BME280;50547;49.498;0.092;2023-04-28T09:21:05;1011.36;;;13.53;90.29
64230;BME280;50547;49.498;0.092;2023-04-28T09:23:45;1011.30;;;13.48;90.43
64230;BME280;50547;49.498;0.092;2023-04-28T09:26:15;1011.36;;;13.53;90.01
64230;BME280;50547;49.498;0.092;2023-04-28T09:28:44;1011.34;;;13.49;90.06
64230;BME280;50547;49.498;0.092;2023-04-28T09:31:21;1011.36;;;13.45;90.16
64230;BME280;50547;49.498;0.092;2023-04-28T09:33:59;1011.40;;;13.49;89.81
64230;BME280;50547;49.498;0.092;2023-04-28T09:36:29;1011.42;;;13.43;90.20
64230;BME280;50547;49.498;0.092;2023-04-28T09:38:59;1011.46;;;13.35;90.45
64230;BME280;50547;49.498;0.092;2023-04-28T09:41:36;1011.54;;;13.33;90.24
64230;BME280;50547;49.498;0.092;2023-04-28T09:44:09;1011.46;;;13.29;90.09
64230;BME280;50547;49.498;0.092;2023-04-28T09:46:39;1011.52;;;13.39;89.55
64230;BME280;50547;49.498;0.092;2023-04-28T09:49:08;1011.54;;;13.53;88.77
64230;BME280;50547;49.498;0.092;2023-04-28T09:51:38;1011.60;;;13.58;88.58
64230;BME280;50547;49.498;0.092;2023-04-28T09:54:08;1011.60;;;13.62;88.31
64230;BME280;50547;49.498;0.092;2023-04-28T09:56:40;1011.64;;;13.59;88.46
64230;BME280;50547;49.498;0.092;2023-04-28T09:59:11;1011.62;;;13.80;87.59
64230;BME280;50547;49.498;0.092;2023-04-28T10:01:48;1011.60;;;13.86;87.36
64230;BME280;50547;49.498;0.092;2023-04-28T10:04:17;1011.60;;;13.77;87.64
64230;BME280;50547;49.498;0.092;2023-04-28T10:06:46;1011.64;;;13.67;88.26
64230;BME280;50547;49.498;0.092;2023-04-28T10:09:16;1011.67;;;13.72;88.00
64230;BME280;50547;49.498;0.092;2023-04-28T10:11:45;1011.67;;;13.82;87.33
64230;BME280;50547;49.498;0.092;2023-04-28T10:14:15;1011.69;;;13.86;87.03
64230;BME280;50547;49.498;0.092;2023-04-28T10:16:44;1011.79;;;13.77;87.39
64230;BME280;50547;49.498;0.092;2023-04-28T10:19:13;1011.79;;;13.61;88.03
64230;BME280;50547;49.498;0.092;2023-04-28T10:21:58;1011.83;;;13.87;86.56
64230;BME280;50547;49.498;0.092;2023-04-28T10:24:31;1011.95;;;13.66;87.26
64230;BME280;50547;49.498;0.092;2023-04-28T10:27:03;1011.95;;;14.01;85.48
64230;BME280;50547;49.498;0.092;2023-04-28T10:29:33;1011.89;;;14.21;84.50
64230;BME280;50547;49.498;0.092;2023-04-28T10:32:20;1011.83;;;14.39;83.79
64230;BME280;50547;49.498;0.092;2023-04-28T10:34:50;1011.95;;;14.52;83.79
64230;BME280;50547;49.498;0.092;2023-04-28T10:38:02;1011.95;;;14.53;83.96
64230;BME280;50547;49.498;0.092;2023-04-28T10:40:32;1012.05;;;14.48;84.16
64230;BME280;50547;49.498;0.092;2023-04-28T10:43:02;1011.99;;;14.56;84.04
64230;BME280;50547;49.498;0.092;2023-04-28T10:46:05;1012.01;;;14.53;84.32
64230;BME280;50547;49.498;0.092;2023-04-28T10:48:54;1011.99;;;14.41;84.78
64230;BME280;50547;49.498;0.092;2023-04-28T10:51:27;1012.01;;;14.37;84.99
64230;BME280;50547;49.498;0.092;2023-04-28T10:54:15;1011.83;;;14.12;85.89
64230;BME280;50547;49.498;0.092;2023-04-28T10:58:29;1011.95;;;14.11;85.95
64230;BME280;50547;49.498;0.092;2023-04-28T11:01:30;1011.97;;;14.06;85.47
64230;BME280;50547;49.498;0.092;2023-04-28T11:04:04;1012.03;;;14.18;84.58
64230;BME280;50547;49.498;0.092;2023-04-28T11:06:35;1012.01;;;14.13;84.64
64230;BME280;50547;49.498;0.092;2023-04-28T11:10:00;1011.91;;;14.12;84.60
64230;BME280;50547;49.498;0.092;2023-04-28T11:12:29;1011.97;;;14.17;84.48
64230;BME280;50547;49.498;0.092;2023-04-28T11:15:11;1012.09;;;14.09;84.96
64230;BME280;50547;49.498;0.092;2023-04-28T11:17:41;1012.07;;;14.16;84.45
64230;BME280;50547;49.498;0.092;2023-04-28T11:20:12;1011.97;;;14.10;84.52
64230;BME280;50547;49.498;0.092;2023-04-28T11:22:41;1012.11;;;14.14;84.75
64230;BME280;50547;49.498;0.092;2023-04-28T11:25:10;1012.11;;;14.06;84.73
64230;BME280;50547;49.498;0.092;2023-04-28T11:27:39;1012.24;;;14.15;84.19
64230;BME280;50547;49.498;0.092;2023-04-28T11:30:19;1012.20;;;14.20;83.73
64230;BME280;50547;49.498;0.092;2023-04-28T11:32:49;1012.14;;;14.20;83.41
64230;BME280;50547;49.498;0.092;2023-04-28T11:35:15;1012.14;;;14.20;83.18
64230;BME280;50547;49.498;0.092;2023-04-28T11:37:44;1012.18;;;14.17;83.57
64230;BME280;50547;49.498;0.092;2023-04-28T11:40:11;1012.14;;;14.34;82.95
64230;BME280;50547;49.498;0.092;2023-04-28T11:42:46;1012.11;;;14.27;83.02
64230;BME280;50547;49.498;0.092;2023-04-28T11:45:15;1012.16;;;14.38;82.46
64230;BME280;50547;49.498;0.092;2023-04-28T11:47:44;1012.11;;;14.17;83.64
64230;BME280;50547;49.498;0.092;2023-04-28T11:50:14;1012.14;;;14.34;82.14
64230;BME280;50547;49.498;0.092;2023-04-28T11:52:50;1012.16;;;14.36;82.30
64230;BME280;50547;49.498;0.092;2023-04-28T11:55:19;1012.20;;;14.43;81.99
64230;BME280;50547;49.498;0.092;2023-04-28T11:58:16;1012.26;;;14.35;82.78
64230;BME280;50547;49.498;0.092;2023-04-28T12:01:05;1012.40;;;14.44;82.44
64230;BME280;50547;49.498;0.092;2023-04-28T12:03:42;1012.30;;;14.59;81.58
64230;BME280;50547;49.498;0.092;2023-04-28T12:06:11;1012.18;;;14.75;80.95
64230;BME280;50547;49.498;0.092;2023-04-28T12:08:40;1012.30;;;14.94;80.05
64230;BME280;50547;49.498;0.092;2023-04-28T12:11:11;1012.38;;;14.68;81.72
64230;BME280;50547;49.498;0.092;2023-04-28T12:13:40;1012.30;;;14.84;81.34
64230;BME280;50547;49.498;0.092;2023-04-28T12:16:09;1012.36;;;14.83;81.31
64230;BME280;50547;49.498;0.092;2023-04-28T12:18:57;1012.58;;;14.98;80.55
64230;BME280;50547;49.498;0.092;2023-04-28T12:21:26;1012.44;;;15.05;80.10
64230;BME280;50547;49.498;0.092;2023-04-28T12:23:55;1012.46;;;14.90;80.91
64230;BME280;50547;49.498;0.092;2023-04-28T12:26:25;1012.50;;;14.83;81.42
64230;BME280;50547;49.498;0.092;2023-04-28T12:28:54;1012.54;;;14.86;81.06
64230;BME280;50547;49.498;0.092;2023-04-28T12:31:23;1012.46;;;14.91;80.87
64230;BME280;50547;49.498;0.092;2023-04-28T12:33:52;1012.38;;;14.92;80.87
64230;BME280;50547;49.498;0.092;2023-04-28T12:36:21;1012.48;;;14.85;81.31
64230;BME280;50547;49.498;0.092;2023-04-28T12:38:50;1012.50;;;15.10;80.73
64230;BME280;50547;49.498;0.092;2023-04-28T12:41:16;1012.46;;;15.69;78.26
64230;BME280;50547;49.498;0.092;2023-04-28T12:43:45;1012.46;;;15.62;78.65
64230;BME280;50547;49.498;0.092;2023-04-28T12:46:14;1012.58;;;15.39;79.80
64230;BME280;50547;49.498;0.092;2023-04-28T12:48:43;1012.42;;;15.37;80.21
64230;BME280;50547;49.498;0.092;2023-04-28T12:51:12;1012.46;;;15.49;79.82
64230;BME280;50547;49.498;0.092;2023-04-28T12:53:42;1012.54;;;15.78;78.26
64230;BME280;50547;49.498;0.092;2023-04-28T12:56:11;1012.46;;;15.85;78.10
64230;BME280;50547;49.498;0.092;2023-04-28T12:58:40;1012.44;;;15.99;76.93
64230;BME280;50547;49.498;0.092;2023-04-28T13:01:10;1012.46;;;15.80;78.31
64230;BME280;50547;49.498;0.092;2023-04-28T13:03:39;1012.59;;;15.86;78.25
64230;BME280;50547;49.498;0.092;2023-04-28T13:06:08;1012.67;;;15.86;78.03
64230;BME280;50547;49.498;0.092;2023-04-28T13:08:37;1012.73;;;15.76;79.41
64230;BME280;50547;49.498;0.092;2023-04-28T13:11:07;1012.69;;;16.15;77.24
64230;BME280;50547;49.498;0.092;2023-04-28T13:13:36;1012.71;;;16.07;76.49
64230;BME280;50547;49.498;0.092;2023-04-28T13:16:05;1012.85;;;15.50;80.18
64230;BME280;50547;49.498;0.092;2023-04-28T13:18:34;1012.93;;;15.10;82.38
64230;BME280;50547;49.498;0.092;2023-04-28T13:21:04;1012.99;;;14.88;82.75
64230;BME280;50547;49.498;0.092;2023-04-28T13:23:33;1012.91;;;14.72;82.97
64230;BME280;50547;49.498;0.092;2023-04-28T13:26:02;1012.95;;;14.70;82.45
64230;BME280;50547;49.498;0.092;2023-04-28T13:28:31;1012.95;;;14.71;82.12
64230;BME280;50547;49.498;0.092;2023-04-28T13:31:00;1012.95;;;14.72;81.57